METAR Data
IDs: Format: Raw Decoded Include TAF

Data at: 2104 UTC 01 Dec 2021

KTTN 012053Z 23004KT 10SM CLR 09/M03 A3013 RMK AO2 SLP198 T00891028 56004